sensor_id;sensor_type;location;lat;lon;timestamp;P1;durP1;ratioP1;P2;durP2;ratioP2
42186;SDS011;27858;51.414;0.018;2023-09-19T00:00:48;4.07;;;1.67;;
42186;SDS011;27858;51.414;0.018;2023-09-19T00:03:15;4.32;;;1.80;;
42186;SDS011;27858;51.414;0.018;2023-09-19T00:05:43;12.20;;;2.63;;
42186;SDS011;27858;51.414;0.018;2023-09-19T00:08:11;5.10;;;1.65;;
42186;SDS011;27858;51.414;0.018;2023-09-19T00:10:42;8.25;;;2.45;;
42186;SDS011;27858;51.414;0.018;2023-09-19T00:13:10;5.30;;;1.55;;
42186;SDS011;27858;51.414;0.018;2023-09-19T00:15:43;6.60;;;1.63;;
42186;SDS011;27858;51.414;0.018;2023-09-19T00:18:18;7.05;;;2.75;;
42186;SDS011;27858;51.414;0.018;2023-09-19T00:20:48;7.18;;;1.92;;
42186;SDS011;27858;51.414;0.018;2023-09-19T00:23:18;9.27;;;2.13;;
42186;SDS011;27858;51.414;0.018;2023-09-19T00:25:45;5.63;;;2.13;;
42186;SDS011;27858;51.414;0.018;2023-09-19T00:28:12;8.65;;;1.60;;
42186;SDS011;27858;51.414;0.018;2023-09-19T00:30:42;7.47;;;1.70;;
42186;SDS011;27858;51.414;0.018;2023-09-19T00:33:10;7.93;;;2.42;;
42186;SDS011;27858;51.414;0.018;2023-09-19T00:35:48;8.93;;;2.20;;
42186;SDS011;27858;51.414;0.018;2023-09-19T00:38:16;6.25;;;1.80;;
42186;SDS011;27858;51.414;0.018;2023-09-19T00:40:46;7.72;;;2.05;;
42186;SDS011;27858;51.414;0.018;2023-09-19T00:43:13;7.82;;;2.30;;
42186;SDS011;27858;51.414;0.018;2023-09-19T00:45:42;14.57;;;2.22;;
42186;SDS011;27858;51.414;0.018;2023-09-19T00:48:11;4.03;;;1.20;;
42186;SDS011;27858;51.414;0.018;2023-09-19T00:50:38;9.25;;;2.92;;
42186;SDS011;27858;51.414;0.018;2023-09-19T00:53:09;9.30;;;2.80;;
42186;SDS011;27858;51.414;0.018;2023-09-19T00:55:40;11.17;;;2.47;;
42186;SDS011;27858;51.414;0.018;2023-09-19T00:58:10;12.40;;;2.95;;
42186;SDS011;27858;51.414;0.018;2023-09-19T01:00:37;7.50;;;2.25;;
42186;SDS011;27858;51.414;0.018;2023-09-19T01:03:05;8.40;;;1.90;;
42186;SDS011;27858;51.414;0.018;2023-09-19T01:05:36;8.43;;;2.15;;
42186;SDS011;27858;51.414;0.018;2023-09-19T01:08:03;6.53;;;1.55;;
42186;SDS011;27858;51.414;0.018;2023-09-19T01:10:30;8.57;;;2.88;;
42186;SDS011;27858;51.414;0.018;2023-09-19T01:16:07;6.65;;;1.98;;
42186;SDS011;27858;51.414;0.018;2023-09-19T01:30:32;8.80;;;2.03;;
42186;SDS011;27858;51.414;0.018;2023-09-19T01:33:02;11.35;;;2.97;;
42186;SDS011;27858;51.414;0.018;2023-09-19T01:35:30;10.68;;;2.53;;
42186;SDS011;27858;51.414;0.018;2023-09-19T01:37:57;8.50;;;2.65;;
42186;SDS011;27858;51.414;0.018;2023-09-19T01:40:25;5.55;;;1.88;;
42186;SDS011;27858;51.414;0.018;2023-09-19T01:50:55;8.63;;;1.75;;
42186;SDS011;27858;51.414;0.018;2023-09-19T01:53:27;7.03;;;3.20;;
42186;SDS011;27858;51.414;0.018;2023-09-19T01:55:59;6.68;;;2.30;;
42186;SDS011;27858;51.414;0.018;2023-09-19T01:58:32;7.20;;;2.05;;
42186;SDS011;27858;51.414;0.018;2023-09-19T02:01:05;10.27;;;2.83;;
42186;SDS011;27858;51.414;0.018;2023-09-19T02:03:37;4.45;;;1.85;;
42186;SDS011;27858;51.414;0.018;2023-09-19T02:06:06;8.82;;;2.92;;
42186;SDS011;27858;51.414;0.018;2023-09-19T02:08:37;7.75;;;2.33;;
42186;SDS011;27858;51.414;0.018;2023-09-19T02:11:05;19.17;;;3.78;;
42186;SDS011;27858;51.414;0.018;2023-09-19T02:13:32;7.85;;;1.70;;
42186;SDS011;27858;51.414;0.018;2023-09-19T02:15:59;3.97;;;1.85;;
42186;SDS011;27858;51.414;0.018;2023-09-19T02:18:26;2.85;;;1.33;;
42186;SDS011;27858;51.414;0.018;2023-09-19T02:20:54;8.82;;;2.05;;
42186;SDS011;27858;51.414;0.018;2023-09-19T02:23:22;7.00;;;1.42;;
42186;SDS011;27858;51.414;0.018;2023-09-19T02:25:53;11.50;;;2.67;;
42186;SDS011;27858;51.414;0.018;2023-09-19T02:28:20;8.43;;;2.17;;
42186;SDS011;27858;51.414;0.018;2023-09-19T02:30:48;11.77;;;3.00;;
42186;SDS011;27858;51.414;0.018;2023-09-19T02:33:16;6.05;;;1.48;;
42186;SDS011;27858;51.414;0.018;2023-09-19T02:35:43;5.43;;;1.92;;
42186;SDS011;27858;51.414;0.018;2023-09-19T02:38:11;10.23;;;2.40;;
42186;SDS011;27858;51.414;0.018;2023-09-19T02:40:38;5.97;;;1.60;;
42186;SDS011;27858;51.414;0.018;2023-09-19T02:43:05;6.70;;;1.80;;
42186;SDS011;27858;51.414;0.018;2023-09-19T02:45:33;6.90;;;2.60;;
42186;SDS011;27858;51.414;0.018;2023-09-19T02:48:00;9.05;;;3.13;;
42186;SDS011;27858;51.414;0.018;2023-09-19T02:50:28;5.82;;;2.22;;
42186;SDS011;27858;51.414;0.018;2023-09-19T02:52:55;9.20;;;2.17;;
42186;SDS011;27858;51.414;0.018;2023-09-19T02:55:22;14.20;;;2.90;;
42186;SDS011;27858;51.414;0.018;2023-09-19T02:57:50;6.13;;;2.35;;
42186;SDS011;27858;51.414;0.018;2023-09-19T03:00:21;7.07;;;2.22;;
42186;SDS011;27858;51.414;0.018;2023-09-19T03:02:49;6.03;;;1.92;;
42186;SDS011;27858;51.414;0.018;2023-09-19T03:05:20;8.38;;;1.98;;
42186;SDS011;27858;51.414;0.018;2023-09-19T03:07:48;9.63;;;2.30;;
42186;SDS011;27858;51.414;0.018;2023-09-19T03:10:17;9.20;;;2.40;;
42186;SDS011;27858;51.414;0.018;2023-09-19T03:12:48;10.25;;;2.60;;
42186;SDS011;27858;51.414;0.018;2023-09-19T03:15:16;9.10;;;1.70;;
42186;SDS011;27858;51.414;0.018;2023-09-19T03:17:44;10.68;;;2.17;;
42186;SDS011;27858;51.414;0.018;2023-09-19T03:20:14;7.25;;;3.22;;
42186;SDS011;27858;51.414;0.018;2023-09-19T03:22:44;8.20;;;1.92;;
42186;SDS011;27858;51.414;0.018;2023-09-19T03:25:11;9.60;;;2.20;;
42186;SDS011;27858;51.414;0.018;2023-09-19T03:27:39;6.93;;;2.50;;
42186;SDS011;27858;51.414;0.018;2023-09-19T03:30:06;7.82;;;1.73;;
42186;SDS011;27858;51.414;0.018;2023-09-19T03:32:43;5.20;;;1.95;;
42186;SDS011;27858;51.414;0.018;2023-09-19T03:35:11;9.40;;;2.03;;
42186;SDS011;27858;51.414;0.018;2023-09-19T03:37:40;9.32;;;2.40;;
42186;SDS011;27858;51.414;0.018;2023-09-19T03:40:11;5.43;;;1.70;;
42186;SDS011;27858;51.414;0.018;2023-09-19T03:42:41;7.57;;;2.78;;
42186;SDS011;27858;51.414;0.018;2023-09-19T03:45:08;7.90;;;3.13;;
42186;SDS011;27858;51.414;0.018;2023-09-19T03:47:39;8.90;;;1.58;;
42186;SDS011;27858;51.414;0.018;2023-09-19T03:50:07;8.90;;;3.33;;
42186;SDS011;27858;51.414;0.018;2023-09-19T03:52:34;9.98;;;2.35;;
42186;SDS011;27858;51.414;0.018;2023-09-19T03:55:01;9.18;;;2.10;;
42186;SDS011;27858;51.414;0.018;2023-09-19T03:57:30;6.47;;;1.58;;
42186;SDS011;27858;51.414;0.018;2023-09-19T03:59:57;8.77;;;1.95;;
42186;SDS011;27858;51.414;0.018;2023-09-19T04:02:24;8.63;;;2.22;;
42186;SDS011;27858;51.414;0.018;2023-09-19T04:04:51;6.82;;;1.95;;
42186;SDS011;27858;51.414;0.018;2023-09-19T04:07:19;6.30;;;1.92;;
42186;SDS011;27858;51.414;0.018;2023-09-19T04:09:49;8.60;;;2.70;;
42186;SDS011;27858;51.414;0.018;2023-09-19T04:12:15;6.07;;;1.90;;
42186;SDS011;27858;51.414;0.018;2023-09-19T04:14:45;8.68;;;1.70;;
42186;SDS011;27858;51.414;0.018;2023-09-19T04:17:12;13.18;;;2.90;;
42186;SDS011;27858;51.414;0.018;2023-09-19T04:19:39;14.32;;;2.20;;
42186;SDS011;27858;51.414;0.018;2023-09-19T04:22:07;5.75;;;1.85;;
42186;SDS011;27858;51.414;0.018;2023-09-19T04:24:35;8.35;;;2.45;;
42186;SDS011;27858;51.414;0.018;2023-09-19T04:27:02;8.15;;;2.47;;
42186;SDS011;27858;51.414;0.018;2023-09-19T04:29:29;8.20;;;2.00;;
42186;SDS011;27858;51.414;0.018;2023-09-19T04:31:56;7.45;;;2.05;;
42186;SDS011;27858;51.414;0.018;2023-09-19T04:34:26;5.15;;;1.45;;
42186;SDS011;27858;51.414;0.018;2023-09-19T04:36:53;6.93;;;2.08;;
42186;SDS011;27858;51.414;0.018;2023-09-19T04:39:20;5.18;;;1.73;;
42186;SDS011;27858;51.414;0.018;2023-09-19T04:41:47;9.40;;;2.40;;
42186;SDS011;27858;51.414;0.018;2023-09-19T04:44:14;7.20;;;2.65;;
42186;SDS011;27858;51.414;0.018;2023-09-19T04:46:42;10.07;;;2.72;;
42186;SDS011;27858;51.414;0.018;2023-09-19T04:49:09;9.50;;;2.22;;
42186;SDS011;27858;51.414;0.018;2023-09-19T04:51:36;10.40;;;2.78;;
42186;SDS011;27858;51.414;0.018;2023-09-19T04:54:03;23.05;;;3.53;;
42186;SDS011;27858;51.414;0.018;2023-09-19T04:56:30;5.32;;;1.48;;
42186;SDS011;27858;51.414;0.018;2023-09-19T04:58:58;5.80;;;2.13;;
42186;SDS011;27858;51.414;0.018;2023-09-19T05:01:26;7.13;;;2.88;;
42186;SDS011;27858;51.414;0.018;2023-09-19T05:03:53;5.53;;;2.10;;
42186;SDS011;27858;51.414;0.018;2023-09-19T05:06:20;10.25;;;2.70;;
42186;SDS011;27858;51.414;0.018;2023-09-19T05:08:49;7.97;;;2.00;;
42186;SDS011;27858;51.414;0.018;2023-09-19T05:11:17;7.30;;;1.92;;
42186;SDS011;27858;51.414;0.018;2023-09-19T05:13:45;13.90;;;2.88;;
42186;SDS011;27858;51.414;0.018;2023-09-19T05:16:12;5.18;;;1.77;;
42186;SDS011;27858;51.414;0.018;2023-09-19T05:18:39;10.27;;;2.30;;
42186;SDS011;27858;51.414;0.018;2023-09-19T05:21:06;11.05;;;2.17;;
42186;SDS011;27858;51.414;0.018;2023-09-19T05:23:33;9.38;;;1.92;;
42186;SDS011;27858;51.414;0.018;2023-09-19T05:26:00;10.82;;;2.25;;
42186;SDS011;27858;51.414;0.018;2023-09-19T05:28:28;7.80;;;2.38;;
42186;SDS011;27858;51.414;0.018;2023-09-19T05:30:55;9.38;;;2.70;;
42186;SDS011;27858;51.414;0.018;2023-09-19T05:33:22;5.75;;;1.85;;
42186;SDS011;27858;51.414;0.018;2023-09-19T05:35:49;17.35;;;2.00;;
42186;SDS011;27858;51.414;0.018;2023-09-19T05:38:16;6.13;;;2.20;;
42186;SDS011;27858;51.414;0.018;2023-09-19T05:40:45;5.47;;;1.40;;
42186;SDS011;27858;51.414;0.018;2023-09-19T05:43:12;17.52;;;1.92;;
42186;SDS011;27858;51.414;0.018;2023-09-19T05:45:40;9.20;;;2.38;;
42186;SDS011;27858;51.414;0.018;2023-09-19T05:48:08;8.48;;;2.05;;
42186;SDS011;27858;51.414;0.018;2023-09-19T05:50:41;9.73;;;4.95;;
42186;SDS011;27858;51.414;0.018;2023-09-19T05:53:08;8.45;;;2.58;;
42186;SDS011;27858;51.414;0.018;2023-09-19T05:55:38;13.98;;;2.53;;
42186;SDS011;27858;51.414;0.018;2023-09-19T05:58:06;11.30;;;2.20;;
42186;SDS011;27858;51.414;0.018;2023-09-19T06:00:33;5.43;;;1.67;;
42186;SDS011;27858;51.414;0.018;2023-09-19T06:03:03;3.58;;;1.90;;
42186;SDS011;27858;51.414;0.018;2023-09-19T06:05:30;6.68;;;1.73;;
42186;SDS011;27858;51.414;0.018;2023-09-19T06:07:58;6.85;;;1.88;;
42186;SDS011;27858;51.414;0.018;2023-09-19T06:10:34;9.82;;;2.35;;
42186;SDS011;27858;51.414;0.018;2023-09-19T06:13:02;12.82;;;1.63;;
42186;SDS011;27858;51.414;0.018;2023-09-19T06:15:32;7.90;;;1.80;;
42186;SDS011;27858;51.414;0.018;2023-09-19T06:18:01;6.88;;;1.80;;
42186;SDS011;27858;51.414;0.018;2023-09-19T06:20:31;5.13;;;1.67;;
42186;SDS011;27858;51.414;0.018;2023-09-19T06:22:59;8.18;;;2.08;;
42186;SDS011;27858;51.414;0.018;2023-09-19T06:25:28;4.43;;;1.20;;
42186;SDS011;27858;51.414;0.018;2023-09-19T06:27:55;3.60;;;1.75;;
42186;SDS011;27858;51.414;0.018;2023-09-19T06:30:23;4.95;;;1.27;;
42186;SDS011;27858;51.414;0.018;2023-09-19T06:32:55;2.35;;;1.38;;
42186;SDS011;27858;51.414;0.018;2023-09-19T06:35:23;3.75;;;1.67;;
42186;SDS011;27858;51.414;0.018;2023-09-19T06:37:52;2.60;;;1.27;;
42186;SDS011;27858;51.414;0.018;2023-09-19T06:40:19;4.75;;;1.33;;
42186;SDS011;27858;51.414;0.018;2023-09-19T06:42:49;3.58;;;1.02;;
42186;SDS011;27858;51.414;0.018;2023-09-19T06:45:17;8.07;;;1.90;;
42186;SDS011;27858;51.414;0.018;2023-09-19T06:47:45;5.65;;;1.55;;
42186;SDS011;27858;51.414;0.018;2023-09-19T06:50:19;7.70;;;1.55;;
42186;SDS011;27858;51.414;0.018;2023-09-19T06:52:52;6.18;;;1.17;;
42186;SDS011;27858;51.414;0.018;2023-09-19T06:57:51;8.38;;;1.65;;
42186;SDS011;27858;51.414;0.018;2023-09-19T07:00:20;4.43;;;1.48;;
42186;SDS011;27858;51.414;0.018;2023-09-19T07:03:01;8.43;;;1.17;;
42186;SDS011;27858;51.414;0.018;2023-09-19T07:05:31;2.60;;;1.10;;
42186;SDS011;27858;51.414;0.018;2023-09-19T07:08:00;5.78;;;1.83;;
42186;SDS011;27858;51.414;0.018;2023-09-19T07:10:27;3.03;;;1.20;;
42186;SDS011;27858;51.414;0.018;2023-09-19T07:12:58;7.47;;;1.90;;
42186;SDS011;27858;51.414;0.018;2023-09-19T07:15:29;14.23;;;1.90;;
42186;SDS011;27858;51.414;0.018;2023-09-19T07:18:03;4.88;;;1.88;;
42186;SDS011;27858;51.414;0.018;2023-09-19T07:20:30;5.40;;;1.40;;
42186;SDS011;27858;51.414;0.018;2023-09-19T07:22:59;5.22;;;1.52;;
42186;SDS011;27858;51.414;0.018;2023-09-19T07:25:29;4.88;;;1.10;;
42186;SDS011;27858;51.414;0.018;2023-09-19T07:27:57;9.88;;;1.98;;
42186;SDS011;27858;51.414;0.018;2023-09-19T07:30:26;9.25;;;1.73;;
42186;SDS011;27858;51.414;0.018;2023-09-19T07:32:53;3.50;;;1.42;;
42186;SDS011;27858;51.414;0.018;2023-09-19T07:35:20;4.88;;;1.77;;
42186;SDS011;27858;51.414;0.018;2023-09-19T07:37:48;6.28;;;1.85;;
42186;SDS011;27858;51.414;0.018;2023-09-19T07:40:17;3.88;;;1.42;;
42186;SDS011;27858;51.414;0.018;2023-09-19T07:42:45;7.30;;;1.88;;
42186;SDS011;27858;51.414;0.018;2023-09-19T07:45:13;2.38;;;1.50;;
42186;SDS011;27858;51.414;0.018;2023-09-19T07:47:43;3.92;;;1.08;;
42186;SDS011;27858;51.414;0.018;2023-09-19T07:50:11;3.72;;;1.73;;
42186;SDS011;27858;51.414;0.018;2023-09-19T07:52:39;5.90;;;1.95;;
42186;SDS011;27858;51.414;0.018;2023-09-19T07:55:06;8.43;;;2.40;;
42186;SDS011;27858;51.414;0.018;2023-09-19T07:57:37;4.90;;;2.00;;
42186;SDS011;27858;51.414;0.018;2023-09-19T08:00:04;9.95;;;2.67;;
42186;SDS011;27858;51.414;0.018;2023-09-19T08:02:36;3.42;;;1.42;;
42186;SDS011;27858;51.414;0.018;2023-09-19T08:05:07;9.05;;;3.30;;
42186;SDS011;27858;51.414;0.018;2023-09-19T08:07:38;6.40;;;2.22;;
42186;SDS011;27858;51.414;0.018;2023-09-19T08:10:06;5.32;;;2.30;;
42186;SDS011;27858;51.414;0.018;2023-09-19T08:12:34;10.50;;;3.58;;
42186;SDS011;27858;51.414;0.018;2023-09-19T08:15:12;8.30;;;2.58;;
42186;SDS011;27858;51.414;0.018;2023-09-19T08:17:46;8.55;;;3.80;;
42186;SDS011;27858;51.414;0.018;2023-09-19T08:20:14;5.35;;;2.47;;
42186;SDS011;27858;51.414;0.018;2023-09-19T08:22:49;13.82;;;3.83;;
42186;SDS011;27858;51.414;0.018;2023-09-19T08:25:18;15.27;;;4.88;;
42186;SDS011;27858;51.414;0.018;2023-09-19T08:27:45;11.98;;;4.40;;
42186;SDS011;27858;51.414;0.018;2023-09-19T08:30:16;10.40;;;3.63;;
42186;SDS011;27858;51.414;0.018;2023-09-19T08:32:44;16.05;;;6.30;;
42186;SDS011;27858;51.414;0.018;2023-09-19T08:35:13;11.35;;;3.90;;
42186;SDS011;27858;51.414;0.018;2023-09-19T08:37:41;13.85;;;6.05;;
42186;SDS011;27858;51.414;0.018;2023-09-19T08:40:09;9.48;;;2.38;;
42186;SDS011;27858;51.414;0.018;2023-09-19T08:42:49;7.63;;;2.90;;
42186;SDS011;27858;51.414;0.018;2023-09-19T08:45:23;11.52;;;3.72;;
42186;SDS011;27858;51.414;0.018;2023-09-19T08:47:56;12.90;;;4.10;;
42186;SDS011;27858;51.414;0.018;2023-09-19T08:50:27;10.07;;;3.72;;
42186;SDS011;27858;51.414;0.018;2023-09-19T08:52:55;4.82;;;2.58;;
42186;SDS011;27858;51.414;0.018;2023-09-19T08:55:26;11.50;;;2.70;;
42186;SDS011;27858;51.414;0.018;2023-09-19T08:58:01;16.52;;;3.75;;
42186;SDS011;27858;51.414;0.018;2023-09-19T09:00:30;13.77;;;3.90;;
42186;SDS011;27858;51.414;0.018;2023-09-19T09:02:58;8.75;;;3.63;;
42186;SDS011;27858;51.414;0.018;2023-09-19T09:05:27;14.10;;;4.10;;
42186;SDS011;27858;51.414;0.018;2023-09-19T09:07:54;14.60;;;3.85;;
42186;SDS011;27858;51.414;0.018;2023-09-19T09:10:22;5.95;;;3.10;;
42186;SDS011;27858;51.414;0.018;2023-09-19T09:12:53;12.77;;;4.05;;
42186;SDS011;27858;51.414;0.018;2023-09-19T09:15:24;12.73;;;3.97;;
42186;SDS011;27858;51.414;0.018;2023-09-19T09:17:51;7.68;;;3.17;;
42186;SDS011;27858;51.414;0.018;2023-09-19T09:20:22;10.98;;;3.17;;
42186;SDS011;27858;51.414;0.018;2023-09-19T09:22:52;9.70;;;3.28;;
42186;SDS011;27858;51.414;0.018;2023-09-19T09:28:23;10.05;;;3.60;;
42186;SDS011;27858;51.414;0.018;2023-09-19T09:30:51;12.63;;;4.22;;
42186;SDS011;27858;51.414;0.018;2023-09-19T09:33:18;12.35;;;3.55;;
42186;SDS011;27858;51.414;0.018;2023-09-19T09:35:49;8.30;;;3.38;;
42186;SDS011;27858;51.414;0.018;2023-09-19T09:38:23;16.02;;;4.47;;
42186;SDS011;27858;51.414;0.018;2023-09-19T09:40:54;14.52;;;3.38;;
42186;SDS011;27858;51.414;0.018;2023-09-19T09:46:27;27.02;;;3.38;;
42186;SDS011;27858;51.414;0.018;2023-09-19T09:49:02;12.27;;;3.17;;
42186;SDS011;27858;51.414;0.018;2023-09-19T09:52:04;15.27;;;3.53;;
42186;SDS011;27858;51.414;0.018;2023-09-19T09:55:01;12.18;;;3.75;;
42186;SDS011;27858;51.414;0.018;2023-09-19T09:57:32;12.10;;;3.63;;
42186;SDS011;27858;51.414;0.018;2023-09-19T10:00:00;16.88;;;3.90;;
42186;SDS011;27858;51.414;0.018;2023-09-19T10:02:40;13.25;;;5.38;;
42186;SDS011;27858;51.414;0.018;2023-09-19T10:05:11;17.30;;;6.13;;
42186;SDS011;27858;51.414;0.018;2023-09-19T10:07:40;13.52;;;4.07;;
42186;SDS011;27858;51.414;0.018;2023-09-19T10:10:10;11.40;;;4.68;;
42186;SDS011;27858;51.414;0.018;2023-09-19T10:12:46;22.13;;;5.93;;
42186;SDS011;27858;51.414;0.018;2023-09-19T10:15:15;22.05;;;5.30;;
42186;SDS011;27858;51.414;0.018;2023-09-19T10:17:44;7.93;;;3.95;;
42186;SDS011;27858;51.414;0.018;2023-09-19T10:20:12;7.32;;;2.85;;
42186;SDS011;27858;51.414;0.018;2023-09-19T10:22:49;15.07;;;3.78;;
42186;SDS011;27858;51.414;0.018;2023-09-19T10:25:27;15.77;;;4.75;;
42186;SDS011;27858;51.414;0.018;2023-09-19T10:27:57;11.52;;;3.50;;
42186;SDS011;27858;51.414;0.018;2023-09-19T10:30:32;17.05;;;4.95;;
42186;SDS011;27858;51.414;0.018;2023-09-19T10:33:03;21.35;;;6.13;;
42186;SDS011;27858;51.414;0.018;2023-09-19T10:35:32;16.70;;;4.68;;
42186;SDS011;27858;51.414;0.018;2023-09-19T10:38:00;25.25;;;5.38;;
42186;SDS011;27858;51.414;0.018;2023-09-19T10:40:29;14.07;;;4.22;;
42186;SDS011;27858;51.414;0.018;2023-09-19T10:43:00;12.13;;;4.05;;
42186;SDS011;27858;51.414;0.018;2023-09-19T10:45:34;8.77;;;3.70;;
42186;SDS011;27858;51.414;0.018;2023-09-19T10:48:02;12.32;;;4.82;;
42186;SDS011;27858;51.414;0.018;2023-09-19T10:50:30;15.07;;;4.47;;
42186;SDS011;27858;51.414;0.018;2023-09-19T10:53:03;19.98;;;4.53;;
42186;SDS011;27858;51.414;0.018;2023-09-19T10:55:34;12.38;;;3.80;;
42186;SDS011;27858;51.414;0.018;2023-09-19T10:58:02;14.77;;;4.10;;
42186;SDS011;27858;51.414;0.018;2023-09-19T11:00:53;13.15;;;3.83;;
42186;SDS011;27858;51.414;0.018;2023-09-19T11:03:22;11.07;;;4.35;;
42186;SDS011;27858;51.414;0.018;2023-09-19T11:06:01;9.55;;;3.88;;
42186;SDS011;27858;51.414;0.018;2023-09-19T11:09:22;16.98;;;4.20;;
42186;SDS011;27858;51.414;0.018;2023-09-19T11:11:42;12.07;;;4.25;;
42186;SDS011;27858;51.414;0.018;2023-09-19T11:30:39;8.73;;;3.50;;
42186;SDS011;27858;51.414;0.018;2023-09-19T11:33:15;14.48;;;4.35;;
42186;SDS011;27858;51.414;0.018;2023-09-19T11:36:11;11.13;;;3.80;;
42186;SDS011;27858;51.414;0.018;2023-09-19T11:43:49;18.27;;;4.03;;
42186;SDS011;27858;51.414;0.018;2023-09-19T11:46:21;12.02;;;4.50;;
42186;SDS011;27858;51.414;0.018;2023-09-19T11:48:49;13.52;;;3.78;;
42186;SDS011;27858;51.414;0.018;2023-09-19T11:51:17;12.98;;;3.47;;
42186;SDS011;27858;51.414;0.018;2023-09-19T11:53:50;9.38;;;2.80;;
42186;SDS011;27858;51.414;0.018;2023-09-19T11:56:18;5.10;;;2.38;;
42186;SDS011;27858;51.414;0.018;2023-09-19T11:58:50;46.53;;;4.95;;
42186;SDS011;27858;51.414;0.018;2023-09-19T12:01:23;5.93;;;2.85;;
42186;SDS011;27858;51.414;0.018;2023-09-19T12:03:58;10.63;;;3.08;;
42186;SDS011;27858;51.414;0.018;2023-09-19T12:06:28;9.27;;;3.10;;
42186;SDS011;27858;51.414;0.018;2023-09-19T12:08:56;13.75;;;3.33;;
42186;SDS011;27858;51.414;0.018;2023-09-19T12:11:28;8.55;;;2.58;;
42186;SDS011;27858;51.414;0.018;2023-09-19T12:13:59;16.42;;;3.05;;
42186;SDS011;27858;51.414;0.018;2023-09-19T12:16:27;6.43;;;2.75;;
42186;SDS011;27858;51.414;0.018;2023-09-19T12:18:57;10.18;;;2.45;;
42186;SDS011;27858;51.414;0.018;2023-09-19T12:21:43;9.82;;;3.30;;
42186;SDS011;27858;51.414;0.018;2023-09-19T12:24:13;17.00;;;4.38;;
42186;SDS011;27858;51.414;0.018;2023-09-19T12:26:43;6.80;;;3.10;;
42186;SDS011;27858;51.414;0.018;2023-09-19T12:29:12;9.45;;;3.47;;
42186;SDS011;27858;51.414;0.018;2023-09-19T12:32:01;8.88;;;2.67;;
42186;SDS011;27858;51.414;0.018;2023-09-19T12:34:30;6.57;;;2.78;;
42186;SDS011;27858;51.414;0.018;2023-09-19T12:37:14;11.40;;;4.10;;
42186;SDS011;27858;51.414;0.018;2023-09-19T12:39:48;5.78;;;2.78;;
42186;SDS011;27858;51.414;0.018;2023-09-19T12:42:17;4.32;;;2.38;;
42186;SDS011;27858;51.414;0.018;2023-09-19T12:44:47;7.28;;;2.67;;
42186;SDS011;27858;51.414;0.018;2023-09-19T12:47:17;7.70;;;2.65;;
42186;SDS011;27858;51.414;0.018;2023-09-19T12:50:10;8.52;;;2.53;;
42186;SDS011;27858;51.414;0.018;2023-09-19T12:55:25;8.35;;;3.13;;
42186;SDS011;27858;51.414;0.018;2023-09-19T13:03:11;8.25;;;2.85;;
42186;SDS011;27858;51.414;0.018;2023-09-19T13:06:02;10.88;;;2.90;;
42186;SDS011;27858;51.414;0.018;2023-09-19T13:08:31;6.63;;;2.72;;
42186;SDS011;27858;51.414;0.018;2023-09-19T13:11:14;6.15;;;2.40;;
42186;SDS011;27858;51.414;0.018;2023-09-19T13:13:46;12.57;;;3.55;;
42186;SDS011;27858;51.414;0.018;2023-09-19T13:16:55;8.13;;;2.83;;
42186;SDS011;27858;51.414;0.018;2023-09-19T13:19:37;7.82;;;3.22;;
42186;SDS011;27858;51.414;0.018;2023-09-19T13:25:02;6.72;;;2.20;;
42186;SDS011;27858;51.414;0.018;2023-09-19T13:27:30;4.60;;;2.22;;
42186;SDS011;27858;51.414;0.018;2023-09-19T13:29:57;5.18;;;2.92;;
42186;SDS011;27858;51.414;0.018;2023-09-19T13:32:25;6.65;;;2.58;;
42186;SDS011;27858;51.414;0.018;2023-09-19T13:34:52;9.25;;;2.28;;
42186;SDS011;27858;51.414;0.018;2023-09-19T13:37:19;4.43;;;2.20;;
42186;SDS011;27858;51.414;0.018;2023-09-19T13:39:45;8.20;;;2.78;;
42186;SDS011;27858;51.414;0.018;2023-09-19T13:42:13;9.65;;;3.15;;
42186;SDS011;27858;51.414;0.018;2023-09-19T13:44:42;7.88;;;2.38;;
42186;SDS011;27858;51.414;0.018;2023-09-19T13:47:09;9.25;;;2.58;;
42186;SDS011;27858;51.414;0.018;2023-09-19T13:49:39;5.28;;;2.15;;
42186;SDS011;27858;51.414;0.018;2023-09-19T13:52:06;4.95;;;2.67;;
42186;SDS011;27858;51.414;0.018;2023-09-19T13:54:33;6.80;;;2.30;;
42186;SDS011;27858;51.414;0.018;2023-09-19T13:57:00;6.72;;;2.60;;
42186;SDS011;27858;51.414;0.018;2023-09-19T13:59:27;5.45;;;1.63;;
42186;SDS011;27858;51.414;0.018;2023-09-19T14:01:54;6.72;;;2.80;;
42186;SDS011;27858;51.414;0.018;2023-09-19T14:04:22;5.13;;;1.80;;
42186;SDS011;27858;51.414;0.018;2023-09-19T14:06:48;10.65;;;2.22;;
42186;SDS011;27858;51.414;0.018;2023-09-19T14:09:15;9.60;;;2.90;;
42186;SDS011;27858;51.414;0.018;2023-09-19T14:11:42;6.85;;;2.20;;
42186;SDS011;27858;51.414;0.018;2023-09-19T14:14:12;2.88;;;1.65;;
42186;SDS011;27858;51.414;0.018;2023-09-19T14:16:39;5.13;;;2.28;;
42186;SDS011;27858;51.414;0.018;2023-09-19T14:19:08;6.72;;;2.05;;
42186;SDS011;27858;51.414;0.018;2023-09-19T14:21:35;8.40;;;1.70;;
42186;SDS011;27858;51.414;0.018;2023-09-19T14:24:05;2.45;;;1.40;;
42186;SDS011;27858;51.414;0.018;2023-09-19T14:26:36;5.53;;;1.80;;
42186;SDS011;27858;51.414;0.018;2023-09-19T14:29:02;5.43;;;2.17;;
42186;SDS011;27858;51.414;0.018;2023-09-19T14:31:30;2.95;;;1.48;;
42186;SDS011;27858;51.414;0.018;2023-09-19T14:33:57;5.50;;;1.70;;
42186;SDS011;27858;51.414;0.018;2023-09-19T14:36:25;8.32;;;1.67;;
42186;SDS011;27858;51.414;0.018;2023-09-19T14:38:52;3.95;;;1.75;;
42186;SDS011;27858;51.414;0.018;2023-09-19T14:41:21;4.97;;;1.92;;
42186;SDS011;27858;51.414;0.018;2023-09-19T14:43:48;4.63;;;1.67;;
42186;SDS011;27858;51.414;0.018;2023-09-19T14:46:15;3.72;;;2.35;;
42186;SDS011;27858;51.414;0.018;2023-09-19T14:48:42;5.10;;;1.88;;
42186;SDS011;27858;51.414;0.018;2023-09-19T14:51:10;4.35;;;2.05;;
42186;SDS011;27858;51.414;0.018;2023-09-19T14:53:38;6.05;;;1.83;;
42186;SDS011;27858;51.414;0.018;2023-09-19T14:56:07;6.20;;;1.63;;
42186;SDS011;27858;51.414;0.018;2023-09-19T14:58:35;5.55;;;2.63;;
42186;SDS011;27858;51.414;0.018;2023-09-19T15:01:06;5.22;;;2.53;;
42186;SDS011;27858;51.414;0.018;2023-09-19T15:03:33;3.20;;;2.13;;
42186;SDS011;27858;51.414;0.018;2023-09-19T15:06:02;5.10;;;2.30;;
42186;SDS011;27858;51.414;0.018;2023-09-19T15:08:36;5.70;;;2.08;;
42186;SDS011;27858;51.414;0.018;2023-09-19T15:11:07;2.45;;;1.38;;
42186;SDS011;27858;51.414;0.018;2023-09-19T15:13:34;4.72;;;1.83;;
42186;SDS011;27858;51.414;0.018;2023-09-19T15:16:05;5.18;;;1.75;;
42186;SDS011;27858;51.414;0.018;2023-09-19T15:21:04;2.58;;;1.27;;
42186;SDS011;27858;51.414;0.018;2023-09-19T15:23:31;4.50;;;1.92;;
42186;SDS011;27858;51.414;0.018;2023-09-19T15:26:00;5.10;;;1.42;;
42186;SDS011;27858;51.414;0.018;2023-09-19T15:28:27;4.57;;;1.80;;
42186;SDS011;27858;51.414;0.018;2023-09-19T15:31:02;5.38;;;1.70;;
42186;SDS011;27858;51.414;0.018;2023-09-19T15:33:34;3.72;;;1.67;;
42186;SDS011;27858;51.414;0.018;2023-09-19T15:36:02;2.95;;;1.50;;
42186;SDS011;27858;51.414;0.018;2023-09-19T15:38:30;8.20;;;1.88;;
42186;SDS011;27858;51.414;0.018;2023-09-19T15:41:00;3.67;;;1.50;;
42186;SDS011;27858;51.414;0.018;2023-09-19T15:43:27;3.95;;;1.38;;
42186;SDS011;27858;51.414;0.018;2023-09-19T15:46:00;9.50;;;2.08;;
42186;SDS011;27858;51.414;0.018;2023-09-19T15:48:27;4.35;;;2.10;;
42186;SDS011;27858;51.414;0.018;2023-09-19T15:50:55;5.35;;;2.47;;
42186;SDS011;27858;51.414;0.018;2023-09-19T15:53:22;6.45;;;2.38;;
42186;SDS011;27858;51.414;0.018;2023-09-19T15:55:49;5.38;;;2.20;;
42186;SDS011;27858;51.414;0.018;2023-09-19T15:58:15;5.47;;;2.13;;
42186;SDS011;27858;51.414;0.018;2023-09-19T16:00:42;4.78;;;1.30;;
42186;SDS011;27858;51.414;0.018;2023-09-19T16:03:09;4.18;;;2.08;;
42186;SDS011;27858;51.414;0.018;2023-09-19T16:05:36;4.20;;;1.80;;